Time;durP1;ratioP1;P1;durP2;ratioP2;P2;SDS_P1;SDS_P2;PMS_P1;PMS_P2;Temp;Humidity;BMP_temperature;BMP_pressure;BME280_temperature;BME280_humidity;BME280_pressure;Samples;Min_cycle;Max_cycle;Signal;HPM_P1;HPM_P2
2022/10/06 00:01:18;;;;;;;;;0.00;0.00;;;;;17.89;56.25;102239.06;5089557;27;46182;-62
2022/10/06 00:03:45;;;;;;;;;2.00;1.00;;;;;17.89;56.63;102240.81;5093999;27;45250;-61
2022/10/06 00:06:12;;;;;;;;;1.67;0.67;;;;;17.89;56.55;102239.06;5092381;27;45321;-62
2022/10/06 00:08:40;;;;;;;;;0.00;0.00;;;;;17.88;56.22;102239.06;5091164;27;45548;-62
2022/10/06 00:11:07;;;;;;;;;0.00;0.00;;;;;17.88;56.50;102244.38;5091213;27;45895;-62
2022/10/06 00:13:33;;;;;;;;;0.67;0.67;;;;;17.86;55.97;102248.81;5075298;27;45551;-62
2022/10/06 00:15:59;;;;;;;;;1.00;0.00;;;;;17.83;55.86;102255.00;5073828;27;45586;-62
2022/10/06 00:18:27;;;;;;;;;0.00;0.00;;;;;17.84;55.96;102269.13;5090309;27;45874;-62
2022/10/06 00:20:57;;;;;;;;;0.00;0.00;;;;;17.79;56.25;102269.09;5091893;27;45338;-63
2022/10/06 00:23:24;;;;;;;;;0.00;0.00;;;;;17.73;56.52;102263.84;5073605;27;45451;-62
2022/10/06 00:25:50;;;;;;;;;1.67;0.00;;;;;17.76;56.01;102274.44;5092539;27;45440;-63
2022/10/06 00:28:16;;;;;;;;;0.00;0.00;;;;;17.76;56.06;102287.69;5087850;27;45490;-63
2022/10/06 00:30:42;;;;;;;;;1.33;0.00;;;;;17.74;56.17;102292.09;5085923;27;45875;-63
2022/10/06 00:33:11;;;;;;;;;1.67;0.00;;;;;17.68;56.22;102286.81;5088574;27;46492;-63
2022/10/06 00:35:37;;;;;;;;;1.67;0.00;;;;;17.66;56.22;102292.13;5084641;27;45554;-63
2022/10/06 00:38:03;;;;;;;;;0.00;0.00;;;;;17.56;56.25;102287.75;5091861;27;45542;-62
2022/10/06 00:40:31;;;;;;;;;1.67;1.00;;;;;17.55;56.52;102299.22;5097952;27;45438;-62
2022/10/06 00:43:05;;;;;;;;;2.33;0.00;;;;;17.61;56.34;102304.50;5091201;27;45473;-62
2022/10/06 00:45:42;;;;;;;;;0.00;0.00;;;;;17.60;56.39;102311.53;5078578;27;45463;-62
2022/10/06 00:48:14;;;;;;;;;2.00;0.00;;;;;17.58;56.66;102310.69;5113445;27;45332;-64
2022/10/06 00:50:41;;;;;;;;;0.00;0.00;;;;;17.59;56.77;102311.56;5090468;27;46239;-62
2022/10/06 00:53:07;;;;;;;;;0.00;0.00;;;;;17.53;56.17;102304.50;5085939;27;45507;-64
2022/10/06 00:55:33;;;;;;;;;1.00;0.00;;;;;17.54;56.12;102306.28;5096345;27;45658;-63
2022/10/06 00:58:00;;;;;;;;;1.00;0.00;;;;;17.53;56.24;102307.16;5096734;27;45479;-63
2022/10/06 01:00:26;;;;;;;;;0.00;0.00;;;;;17.51;55.97;102308.03;5096455;27;45710;-62
2022/10/06 01:03:01;;;;;;;;;0.00;0.00;;;;;17.47;55.95;102306.31;5078420;27;45452;-64
2022/10/06 01:05:35;;;;;;;;;2.00;0.00;;;;;17.47;56.07;102307.19;5087529;27;45443;-62
2022/10/06 01:08:04;;;;;;;;;0.67;0.00;;;;;17.46;56.20;102308.03;5097214;27;45613;-63
2022/10/06 01:10:30;;;;;;;;;0.33;0.00;;;;;17.43;55.90;102315.13;5085260;27;45481;-63
2022/10/06 01:12:56;;;;;;;;;2.00;0.00;;;;;17.41;56.17;102320.41;5095471;27;45322;-63
2022/10/06 01:15:22;;;;;;;;;0.00;0.00;;;;;17.41;55.84;102319.53;5089448;27;45303;-63
2022/10/06 01:18:12;;;;;;;;;0.33;0.00;;;;;17.40;56.12;102325.72;5089828;27;45304;-64
2022/10/06 01:20:50;;;;;;;;;0.00;0.00;;;;;17.25;55.90;102301.03;5095126;27;46163;-63
2022/10/06 01:23:17;;;;;;;;;3.67;0.00;;;;;17.38;56.00;102323.06;5092325;27;45556;-62
2022/10/06 01:25:43;;;;;;;;;3.00;0.33;;;;;17.34;55.83;102322.19;5079441;27;45422;-63
2022/10/06 01:28:11;;;;;;;;;1.00;1.00;;;;;17.35;56.07;102337.19;5082830;27;45469;-64
2022/10/06 01:30:40;;;;;;;;;3.00;0.00;;;;;17.36;56.07;102338.97;5100527;27;45491;-63
2022/10/06 01:33:06;;;;;;;;;2.33;0.67;;;;;17.28;55.89;102332.78;5095961;27;45357;-63
2022/10/06 01:35:32;;;;;;;;;1.00;0.00;;;;;17.31;55.98;102342.50;5097155;27;45330;-63
2022/10/06 01:37:58;;;;;;;;;2.67;0.67;;;;;17.31;55.98;102347.78;5084042;27;45457;-63
2022/10/06 01:40:28;;;;;;;;;4.33;2.33;;;;;17.28;56.04;102351.34;5070870;27;46014;-63
2022/10/06 01:42:54;;;;;;;;;0.00;0.00;;;;;17.22;55.64;102340.72;5067665;27;45477;-63
2022/10/06 01:45:20;;;;;;;;;0.00;0.00;;;;;17.20;56.07;102338.97;5081811;27;45462;-63
2022/10/06 01:47:46;;;;;;;;;1.00;1.00;;;;;17.24;55.91;102351.31;5084526;27;45654;-63
2022/10/06 01:50:13;;;;;;;;;0.00;0.00;;;;;17.13;55.90;102338.97;5093786;27;46041;-63
2022/10/06 01:52:38;;;;;;;;;0.33;0.00;;;;;17.13;55.97;102338.06;5100323;27;45467;-63
2022/10/06 01:55:05;;;;;;;;;6.00;1.00;;;;;17.15;55.81;102353.06;5097692;27;45436;-64
2022/10/06 01:57:30;;;;;;;;;0.67;0.00;;;;;17.14;55.97;102353.09;5095676;27;45480;-63
2022/10/06 01:59:56;;;;;;;;;2.00;0.00;;;;;17.09;55.82;102346.91;5077037;27;47640;-63
2022/10/06 02:02:21;;;;;;;;;2.00;0.00;;;;;17.05;56.10;102347.78;5095993;27;45479;-64
2022/10/06 02:04:47;;;;;;;;;0.00;0.00;;;;;17.08;55.80;102355.72;5096528;27;45727;-63
2022/10/06 02:07:13;;;;;;;;;0.67;0.00;;;;;17.03;55.55;102357.50;5098241;27;45841;-63
2022/10/06 02:09:38;;;;;;;;;0.33;0.33;;;;;17.01;55.81;102360.13;5095316;27;46185;-65
2022/10/06 02:12:04;;;;;;;;;1.00;1.00;;;;;16.93;55.74;102354.81;5098021;27;45260;-63
2022/10/06 02:14:30;;;;;;;;;1.00;0.00;;;;;16.99;55.75;102367.22;5097557;27;45352;-64
2022/10/06 02:16:56;;;;;;;;;1.00;0.00;;;;;16.91;55.42;102358.34;5084262;27;45505;-62
2022/10/06 02:19:22;;;;;;;;;1.33;0.67;;;;;16.94;55.77;102374.22;5095341;27;46304;-62
2022/10/06 02:21:47;;;;;;;;;3.33;0.67;;;;;16.93;55.62;102375.13;5095483;27;45484;-63
2022/10/06 02:24:13;;;;;;;;;0.00;0.00;;;;;16.92;55.58;102371.59;5097639;27;45314;-65
2022/10/06 02:26:38;;;;;;;;;0.00;0.00;;;;;16.80;55.60;102357.44;5099820;27;45486;-63
2022/10/06 02:29:04;;;;;;;;;1.00;1.00;;;;;16.92;55.57;102387.47;5078094;27;45417;-63
2022/10/06 02:31:30;;;;;;;;;0.67;0.33;;;;;16.84;55.52;102378.63;5095263;27;45548;-64
2022/10/06 02:33:57;;;;;;;;;2.00;0.00;;;;;16.86;55.60;102384.81;5076872;27;45812;-63
2022/10/06 02:36:26;;;;;;;;;1.00;0.00;;;;;16.85;55.39;102395.41;5096991;27;45342;-62
2022/10/06 02:38:52;;;;;;;;;2.00;0.00;;;;;16.75;56.13;102400.66;5097025;27;46118;-63
2022/10/06 02:41:17;;;;;;;;;0.00;0.00;;;;;16.72;55.81;102397.97;5076149;27;45768;-63
2022/10/06 02:43:43;;;;;;;;;1.00;1.00;;;;;16.73;55.83;102399.75;5080974;27;45417;-64
2022/10/06 02:46:12;;;;;;;;;2.33;0.00;;;;;16.76;55.56;102398.88;5094815;27;45382;-63
2022/10/06 02:48:39;;;;;;;;;1.00;1.00;;;;;16.76;55.54;102404.16;5077433;27;45837;-63
2022/10/06 02:51:10;;;;;;;;;1.00;0.00;;;;;16.69;55.76;102400.63;5099313;27;45478;-64
2022/10/06 02:53:36;;;;;;;;;2.00;0.33;;;;;16.68;55.37;102392.66;5087572;27;45474;-62
2022/10/06 02:56:09;;;;;;;;;0.33;0.33;;;;;16.78;55.61;102409.47;5096174;27;45670;-63
2022/10/06 02:58:37;;;;;;;;;2.00;1.00;;;;;16.78;55.57;102405.06;5098962;27;46432;-62
2022/10/06 03:01:12;;;;;;;;;0.67;0.67;;;;;16.60;55.87;102395.28;5098930;27;45409;-63
2022/10/06 03:03:38;;;;;;;;;2.67;1.00;;;;;16.54;55.92;102395.28;5098029;27;45404;-63
2022/10/06 03:06:21;;;;;;;;;3.00;1.00;;;;;16.63;55.69;102413.81;5099059;27;45362;-62
2022/10/06 03:09:00;;;;;;;;;1.00;0.67;;;;;16.57;56.23;102427.03;5081935;27;45772;-63
2022/10/06 03:11:31;;;;;;;;;4.33;0.33;;;;;16.46;56.43;102416.38;5077602;27;46093;-63
2022/10/06 03:13:56;;;;;;;;;1.00;0.67;;;;;16.50;56.42;102427.88;5076151;27;45611;-63
2022/10/06 03:16:25;;;;;;;;;1.00;1.00;;;;;16.50;55.97;102423.47;5078230;27;45531;-63
2022/10/06 03:18:53;;;;;;;;;1.33;0.67;;;;;16.25;56.32;102392.50;5093654;27;46056;-63
2022/10/06 03:21:21;;;;;;;;;2.00;0.00;;;;;16.44;55.79;102425.19;5098387;27;45398;-63
2022/10/06 03:23:48;;;;;;;;;2.33;1.00;;;;;16.44;55.97;102426.06;5097637;27;45446;-63
2022/10/06 03:26:16;;;;;;;;;3.33;2.00;;;;;16.30;56.46;102427.75;5058762;27;45580;-62
2022/10/06 03:28:43;;;;;;;;;2.00;0.67;;;;;16.24;56.43;102418.06;5096136;27;46076;-62
2022/10/06 03:31:08;;;;;;;;;4.00;1.00;;;;;16.29;56.28;102428.66;5080221;27;45534;-62
2022/10/06 03:33:34;;;;;;;;;1.00;1.00;;;;;16.08;56.26;102398.56;5099082;27;45358;-62
2022/10/06 03:36:05;;;;;;;;;0.33;0.33;;;;;16.25;56.28;102425.13;5094888;27;45470;-62
2022/10/06 03:38:33;;;;;;;;;3.33;0.00;;;;;16.23;56.44;102432.16;5092073;27;46237;-63
2022/10/06 03:41:10;;;;;;;;;1.67;1.00;;;;;16.27;56.46;102448.91;5064323;27;45666;-61
2022/10/06 03:43:37;;;;;;;;;1.00;1.00;;;;;16.21;56.24;102448.91;5094082;27;45495;-62
2022/10/06 03:46:04;;;;;;;;;2.00;0.00;;;;;16.20;56.44;102452.41;5087421;27;45419;-63
2022/10/06 03:48:34;;;;;;;;;0.00;0.00;;;;;16.19;56.25;102461.22;5075935;27;46352;-63
2022/10/06 05:24:08;;;;;;;;;3.00;0.00;;;;;13.38;64.73;102550.75;5020860;28;45420;-64
2022/10/06 05:26:34;;;;;;;;;2.33;1.00;;;;;13.47;64.34;102548.28;4992749;28;45957;-63
2022/10/06 05:29:01;;;;;;;;;3.00;2.33;;;;;13.63;64.01;102557.38;4996634;28;45766;-64
2022/10/06 05:31:30;;;;;;;;;2.00;1.00;;;;;13.78;63.80;102562.00;5009160;28;45478;-68
2022/10/06 05:33:57;;;;;;;;;4.33;3.00;;;;;13.88;62.81;102552.53;4996697;28;45547;-64
2022/10/06 05:36:25;;;;;;;;;4.67;2.00;;;;;14.05;62.98;102576.53;5006142;28;45581;-65
2022/10/06 05:38:51;;;;;;;;;6.33;1.00;;;;;14.13;62.19;102573.16;5001342;28;45698;-64
2022/10/06 05:41:19;;;;;;;;;4.00;1.33;;;;;14.23;62.14;102562.78;5006212;28;45652;-63
2022/10/06 05:43:46;;;;;;;;;2.00;2.00;;;;;14.31;61.90;102575.22;5007954;28;46327;-63
2022/10/06 05:46:16;;;;;;;;;1.00;1.00;;;;;14.42;61.84;102567.47;5005638;28;45866;-63
2022/10/06 05:48:48;;;;;;;;;3.33;1.33;;;;;14.49;61.30;102582.50;4994497;28;45475;-64
2022/10/06 05:51:21;;;;;;;;;3.33;2.00;;;;;14.50;60.96;102581.66;5002188;28;45391;-64
2022/10/06 05:53:47;;;;;;;;;5.33;2.67;;;;;14.45;61.37;102572.81;4996991;28;47275;-64
2022/10/06 05:56:20;;;;;;;;;4.67;1.00;;;;;14.41;61.49;102563.06;4995754;28;45306;-65
2022/10/06 05:58:48;;;;;;;;;2.33;1.00;;;;;14.56;60.94;102581.78;5003222;28;45557;-64
2022/10/06 06:01:22;;;;;;;;;2.00;2.00;;;;;14.68;60.71;102586.34;5001882;28;45286;-63
2022/10/06 06:03:50;;;;;;;;;1.33;1.00;;;;;14.74;60.75;102593.47;4997464;28;46141;-64
2022/10/06 06:06:23;;;;;;;;;0.67;0.67;;;;;14.82;60.78;102590.06;5004579;28;45391;-64
2022/10/06 06:08:55;;;;;;;;;2.00;0.33;;;;;14.81;60.25;102568.97;4993187;28;45372;-64
2022/10/06 06:11:24;;;;;;;;;3.67;1.00;;;;;14.89;60.43;102585.75;4988896;28;45521;-64
2022/10/06 06:13:51;;;;;;;;;2.00;0.67;;;;;15.01;59.96;102585.03;5004633;28;46571;-64
2022/10/06 06:16:17;;;;;;;;;2.67;1.00;;;;;15.00;60.42;102586.81;5005502;28;45573;-64
2022/10/06 06:18:43;;;;;;;;;1.00;1.00;;;;;15.00;60.54;102585.94;4995993;28;45170;-64
2022/10/06 06:21:09;;;;;;;;;1.67;1.00;;;;;14.94;59.91;102576.16;5027821;28;45676;-64
2022/10/06 06:23:41;;;;;;;;;5.33;1.33;;;;;15.01;59.92;102588.56;5021926;28;48005;-65
2022/10/06 06:26:14;;;;;;;;;2.67;2.67;;;;;15.13;59.37;102592.25;5028823;28;45478;-65
2022/10/06 06:28:41;;;;;;;;;1.33;1.33;;;;;15.20;59.33;102592.31;5028492;28;45539;-64
2022/10/06 06:31:13;;;;;;;;;4.33;1.00;;;;;15.30;58.96;102600.34;5009744;28;45431;-65
2022/10/06 06:33:40;;;;;;;;;4.00;2.00;;;;;15.25;59.56;102603.81;5006626;28;45627;-64
2022/10/06 06:36:21;;;;;;;;;5.00;1.33;;;;;15.29;59.43;102617.09;5004563;28;45451;-66
2022/10/06 06:38:50;;;;;;;;;1.00;1.00;;;;;15.29;58.86;102611.81;5010660;28;45461;-65
2022/10/06 06:41:21;;;;;;;;;3.67;1.67;;;;;15.38;58.73;102611.91;5012036;28;45628;-64
2022/10/06 06:43:48;;;;;;;;;1.67;1.67;;;;;15.35;58.96;102620.69;5014740;28;45339;-64
2022/10/06 06:46:16;;;;;;;;;1.67;1.33;;;;;15.35;58.65;102619.78;5011106;28;45538;-64
2022/10/06 06:48:43;;;;;;;;;4.00;2.00;;;;;15.39;58.37;102617.19;5009733;28;45505;-64
2022/10/06 06:51:12;;;;;;;;;2.00;2.00;;;;;15.35;58.65;102610.13;4993730;28;45457;-65
2022/10/06 06:53:39;;;;;;;;;4.00;2.00;;;;;15.56;58.38;102633.25;5008593;28;46155;-64
2022/10/06 06:56:07;;;;;;;;;5.67;2.00;;;;;15.68;58.00;102633.41;5013799;28;45387;-63
2022/10/06 06:58:34;;;;;;;;;3.33;2.67;;;;;15.70;57.88;102636.06;5014314;28;45421;-64
2022/10/06 07:01:12;;;;;;;;;3.00;1.67;;;;;15.70;57.92;102651.91;5016709;28;45476;-65
2022/10/06 07:03:39;;;;;;;;;4.00;2.00;;;;;15.78;57.75;102649.34;5014116;28;47606;-65
2022/10/06 07:06:08;;;;;;;;;3.00;2.00;;;;;15.84;57.49;102652.09;5007003;28;46160;-64
2022/10/06 07:08:41;;;;;;;;;2.33;2.00;;;;;15.98;57.40;102657.50;5016167;28;45469;-63
2022/10/06 07:11:24;;;;;;;;;4.33;2.00;;;;;16.01;57.20;102654.91;5008420;28;45506;-63
2022/10/06 07:14:00;;;;;;;;;5.00;3.00;;;;;16.10;57.50;102658.50;5000896;28;45494;-64
2022/10/06 07:27:27;;;;;;;;;8.33;4.00;;;;;16.75;55.29;102649.38;5014712;28;45530;-64
2022/10/06 07:29:53;;;;;;;;;4.33;3.33;;;;;16.89;55.04;102652.13;5013108;28;45332;-64
2022/10/06 07:32:24;;;;;;;;;5.33;2.33;;;;;16.92;55.20;102678.63;5015150;28;45914;-61
2022/10/06 07:34:50;;;;;;;;;2.67;2.33;;;;;16.97;55.47;102680.41;5014801;28;45540;-62
2022/10/06 07:37:17;;;;;;;;;4.00;3.67;;;;;17.12;54.59;102677.84;5017198;28;45311;-63
2022/10/06 07:39:43;;;;;;;;;3.00;1.33;;;;;17.19;54.81;102673.47;5016733;28;45637;-62
2022/10/06 07:42:14;;;;;;;;;5.00;3.00;;;;;17.34;55.87;102676.19;5018915;28;45746;-62
2022/10/06 07:44:43;;;;;;;;;3.00;3.00;;;;;17.46;54.40;102678.00;5033929;28;47661;-62
2022/10/06 07:47:09;;;;;;;;;3.33;2.00;;;;;17.55;55.20;102667.47;5012727;28;45571;-63
2022/10/06 07:49:36;;;;;;;;;3.67;1.67;;;;;17.74;53.28;102687.84;5014491;28;45523;-63
2022/10/06 07:52:01;;;;;;;;;3.67;2.33;;;;;17.82;53.88;102687.91;5014452;28;45400;-63
2022/10/06 07:54:27;;;;;;;;;3.67;2.33;;;;;17.93;52.43;102685.28;5028984;28;46503;-62
2022/10/06 07:56:54;;;;;;;;;5.67;3.33;;;;;18.06;52.85;102703.00;5014413;28;45481;-62
2022/10/06 07:59:20;;;;;;;;;4.00;3.00;;;;;18.14;53.60;102703.88;5011359;28;45503;-62
2022/10/06 08:01:45;;;;;;;;;4.33;3.00;;;;;18.26;52.52;102700.38;5006535;28;45439;-62
2022/10/06 08:04:14;;;;;;;;;2.00;1.00;;;;;18.36;51.97;102699.47;5011901;28;46469;-62
2022/10/06 08:06:40;;;;;;;;;2.33;2.33;;;;;18.48;51.21;102706.56;5009290;28;45436;-62
2022/10/06 08:09:06;;;;;;;;;3.00;2.00;;;;;18.54;51.55;102705.69;5014574;28;45793;-62
2022/10/06 08:11:32;;;;;;;;;3.67;1.00;;;;;18.58;50.80;102704.78;5009353;28;45788;-65
2022/10/06 08:13:58;;;;;;;;;3.67;2.00;;;;;18.69;50.44;102718.06;4993673;28;46066;-63
2022/10/06 08:16:28;;;;;;;;;1.33;1.00;;;;;18.75;50.54;102711.00;5012635;28;45481;-62
2022/10/06 08:18:56;;;;;;;;;5.00;1.33;;;;;18.78;50.23;102716.34;5017029;28;45388;-63
2022/10/06 08:21:23;;;;;;;;;3.00;2.00;;;;;18.89;50.19;102715.44;5018641;28;45517;-61
2022/10/06 08:23:50;;;;;;;;;6.33;1.33;;;;;18.75;50.86;102713.66;5017646;28;45529;-63
2022/10/06 08:26:17;;;;;;;;;1.67;1.67;;;;;18.88;50.12;102711.91;5016704;28;45208;-63
2022/10/06 08:28:48;;;;;;;;;5.00;1.00;;;;;18.96;52.01;102712.78;5014137;28;45704;-64
2022/10/06 08:31:16;;;;;;;;;3.33;2.00;;;;;19.14;49.91;102718.94;5016728;28;45315;-61
2022/10/06 08:33:42;;;;;;;;;3.00;2.00;;;;;19.17;50.78;102713.63;5016868;28;46875;-62
2022/10/06 08:36:10;;;;;;;;;3.00;2.00;;;;;19.23;50.20;102710.97;5013676;28;45506;-62
2022/10/06 08:38:37;;;;;;;;;1.00;1.00;;;;;19.43;49.75;102719.78;5009196;28;46212;-63
2022/10/06 08:41:41;;;;;;;;;1.00;1.00;;;;;19.59;49.33;102730.31;5003863;28;45333;-63
2022/10/06 08:44:18;;;;;;;;;1.00;1.00;;;;;19.73;49.43;102717.00;5015323;28;46934;-63
2022/10/06 08:46:48;;;;;;;;;1.00;1.00;;;;;19.85;49.46;102731.13;5017668;28;45583;-63
2022/10/06 08:49:20;;;;;;;;;2.33;1.00;;;;;19.92;48.79;102731.97;5017890;28;45355;-63
2022/10/06 08:52:01;;;;;;;;;3.33;1.00;;;;;20.05;49.02;102740.75;5017831;28;45372;-63
2022/10/06 08:54:57;;;;;;;;;3.00;2.00;;;;;20.04;47.33;102744.31;5017286;28;45475;-62
2022/10/06 08:57:48;;;;;;;;;2.33;1.00;;;;;20.10;47.98;102733.66;5005226;28;45498;-63
2022/10/06 09:00:16;;;;;;;;;1.33;1.00;;;;;20.27;48.28;102747.75;5017731;28;45360;-63
2022/10/06 09:02:47;;;;;;;;;2.00;1.33;;;;;20.31;48.28;102736.19;5017677;28;45382;-63
2022/10/06 09:05:24;;;;;;;;;2.33;1.00;;;;;20.39;47.86;102725.47;5012668;28;45620;-62
2022/10/06 09:08:11;;;;;;;;;1.00;1.00;;;;;20.67;47.37;102747.47;5011909;28;45407;-62
2022/10/06 09:10:43;;;;;;;;;4.00;1.00;;;;;20.78;47.24;102751.81;4997083;28;45605;-63
2022/10/06 09:13:18;;;;;;;;;3.00;1.00;;;;;20.85;47.28;102745.53;5011090;28;45368;-64
2022/10/06 09:15:53;;;;;;;;;0.67;0.67;;;;;20.93;46.43;102743.72;5005669;28;46234;-63
2022/10/06 09:18:34;;;;;;;;;3.00;1.00;;;;;21.06;46.57;102756.00;5028469;28;45730;-62
2022/10/06 09:21:02;;;;;;;;;2.00;1.00;;;;;21.17;46.31;102747.91;5013108;28;45611;-62
2022/10/06 09:23:46;;;;;;;;;4.67;1.00;;;;;21.24;45.44;102744.28;5021697;28;45702;-62
2022/10/06 09:26:17;;;;;;;;;2.33;1.67;;;;;21.31;45.54;102750.44;5012715;28;45732;-63
2022/10/06 09:28:45;;;;;;;;;3.00;1.00;;;;;21.44;45.98;102745.88;5014241;28;45531;-62
2022/10/06 09:31:19;;;;;;;;;2.00;2.00;;;;;21.56;44.99;102743.06;5001266;28;45540;-63
2022/10/06 09:33:47;;;;;;;;;2.67;2.00;;;;;21.46;44.46;102755.63;5013344;28;45497;-63
2022/10/06 09:36:13;;;;;;;;;2.33;1.00;;;;;21.56;45.69;102757.25;5012792;28;45425;-61
2022/10/06 09:38:54;;;;;;;;;2.67;1.00;;;;;21.72;44.91;102749.97;5016169;28;45453;-63
2022/10/06 09:41:38;;;;;;;;;5.00;2.00;;;;;21.83;44.40;102752.50;5010677;28;45373;-63
2022/10/06 09:44:22;;;;;;;;;2.33;2.00;;;;;21.98;43.78;102746.09;4991077;28;45444;-61
2022/10/06 09:46:47;;;;;;;;;2.00;2.00;;;;;22.14;43.32;102742.28;5010716;28;46156;-62
2022/10/06 09:49:17;;;;;;;;;3.00;2.00;;;;;22.26;43.36;102741.28;5012544;28;45560;-62
2022/10/06 09:52:02;;;;;;;;;1.00;1.00;;;;;22.53;43.44;102739.94;5001783;28;45473;-62
2022/10/06 09:54:30;;;;;;;;;5.00;2.67;;;;;22.81;42.30;102737.69;5024527;28;45462;-62
2022/10/06 09:56:58;;;;;;;;;4.00;1.00;;;;;23.17;42.06;102745.97;4992484;28;45495;-63
2022/10/06 09:59:36;;;;;;;;;2.50;1.00;;;;;23.50;41.58;102738.22;5009099;28;45510;-63
2022/10/06 10:02:03;;;;;;;;;2.00;2.00;;;;;23.69;39.14;102718.19;4985778;28;45784;-62
2022/10/06 10:04:38;;;;;;;;;1.25;1.00;;;;;23.81;40.09;102734.91;5011373;28;45523;-62
2022/10/06 10:07:23;;;;;;;;;3.00;2.00;;;;;24.15;40.38;102743.06;5014941;28;46314;-62
2022/10/06 10:09:49;;;;;;;;;3.25;1.25;;;;;24.85;39.22;102739.59;5014483;28;45581;-63
2022/10/06 10:12:23;;;;;;;;;4.50;2.50;;;;;26.31;36.43;102733.56;5015507;28;45813;-63
2022/10/06 10:15:03;;;;;;;;;1.00;1.00;;;;;28.95;32.90;102728.97;5003193;28;45534;-62
2022/10/06 10:17:28;;;;;;;;;2.00;1.00;;;;;30.54;29.92;102727.81;5019760;28;46376;-63
2022/10/06 10:19:54;;;;;;;;;3.25;2.00;;;;;29.36;30.33;102720.84;5016341;28;45348;-62
2022/10/06 10:22:29;;;;;;;;;3.50;2.00;;;;;28.79;31.64;102737.81;5015713;28;45792;-61
2022/10/06 10:25:09;;;;;;;;;2.50;1.75;;;;;29.45;30.02;102714.16;4995129;28;45418;-62
2022/10/06 10:28:16;;;;;;;;;4.20;2.00;;;;;28.01;32.04;102718.53;5008782;28;45656;-62
2022/10/06 10:30:59;;;;;;;;;4.00;3.00;;;;;30.50;29.23;102725.34;5010590;28;45981;-63
2022/10/06 10:33:48;;;;;;;;;5.00;2.00;;;;;32.53;26.87;102725.94;5015217;28;45503;-63
2022/10/06 10:36:16;;;;;;;;;4.00;1.00;;;;;34.16;25.16;102711.13;5006808;28;45369;-61
2022/10/06 10:38:45;;;;;;;;;3.00;1.40;;;;;35.43;23.78;102709.56;5006794;28;46185;-62
2022/10/06 10:41:21;;;;;;;;;2.60;1.00;;;;;36.48;22.19;102704.50;4999741;28;45498;-63
2022/10/06 10:44:08;;;;;;;;;4.00;2.00;;;;;37.40;20.81;102702.66;5015623;28;45426;-62
2022/10/06 10:46:44;;;;;;;;;2.20;1.60;;;;;38.19;20.60;102705.25;5017648;28;45527;-63
2022/10/06 10:49:30;;;;;;;;;1.00;1.00;;;;;38.81;19.88;102696.19;5015059;28;47910;-62
2022/10/06 10:52:19;;;;;;;;;1.00;1.00;;;;;39.76;19.48;102703.25;5004414;28;45660;-63
2022/10/06 10:54:58;;;;;;;;;1.80;1.80;;;;;40.31;18.55;102702.75;5027730;28;45547;-62
2022/10/06 10:57:34;;;;;;;;;2.40;1.00;;;;;41.01;18.37;102711.59;5008315;28;45707;-62
2022/10/06 11:00:16;;;;;;;;;5.40;0.80;;;;;41.40;17.31;102699.56;5008589;28;46352;-64
2022/10/06 11:02:42;;;;;;;;;0.20;0.20;;;;;41.99;16.47;102691.84;5022885;28;45510;-62
2022/10/06 11:05:33;;;;;;;;;1.00;1.00;;;;;42.49;16.36;102694.88;5013126;28;45721;-62
2022/10/06 11:08:15;;;;;;;;;3.60;1.80;;;;;40.59;16.65;102692.72;5010763;28;45502;-63
2022/10/06 11:10:49;;;;;;;;;1.40;0.00;;;;;39.38;18.15;102688.44;5004877;28;46065;-63
2022/10/06 11:13:39;;;;;;;;;2.20;0.80;;;;;39.70;17.53;102695.59;5007959;28;45447;-63
2022/10/06 11:16:14;;;;;;;;;10.80;5.00;;;;;40.87;17.03;102701.09;5012055;28;45591;-63
2022/10/06 11:19:04;;;;;;;;;3.20;3.00;;;;;41.25;16.70;102691.84;5009194;28;45478;-63
2022/10/06 11:22:11;;;;;;;;;8.80;6.80;;;;;42.26;14.87;102685.34;5012173;28;45762;-64
2022/10/06 11:25:21;;;;;;;;;15.60;12.00;;;;;42.68;16.01;102690.19;4991700;28;45889;-62
2022/10/06 11:28:21;;;;;;;;;12.60;8.60;;;;;43.09;15.79;102699.56;5007972;28;45415;-63
2022/10/06 11:30:59;;;;;;;;;3.60;2.80;;;;;43.20;14.82;102687.41;5007327;28;45983;-63
2022/10/06 11:33:40;;;;;;;;;4.20;4.20;;;;;43.27;14.54;102693.13;5005984;28;46978;-63
2022/10/06 11:36:14;;;;;;;;;4.00;2.60;;;;;43.13;14.54;102653.22;5008539;28;45819;-62
2022/10/06 11:38:44;;;;;;;;;2.40;2.40;;;;;43.24;14.04;102691.56;5005549;28;45568;-63
2022/10/06 11:41:31;;;;;;;;;6.80;1.80;;;;;42.99;13.95;102679.53;5007649;28;45537;-64
2022/10/06 11:44:04;;;;;;;;;2.20;1.60;;;;;42.08;14.23;102679.91;5004592;28;47662;-62
2022/10/06 11:46:48;;;;;;;;;4.40;3.00;;;;;42.01;15.23;102678.81;5003329;28;45548;-62
2022/10/06 11:49:29;;;;;;;;;5.20;2.20;;;;;41.93;14.72;102652.00;5004749;28;45541;-62
2022/10/06 11:51:56;;;;;;;;;4.80;3.20;;;;;42.01;14.96;102674.16;5011817;28;45552;-63
2022/10/06 11:54:46;;;;;;;;;5.40;2.60;;;;;41.80;15.63;102671.69;5011931;28;47024;-63
2022/10/06 11:57:26;;;;;;;;;1.80;1.80;;;;;38.88;16.23;102671.88;5009645;28;45433;-64
2022/10/06 12:00:05;;;;;;;;;1.00;1.00;;;;;36.09;18.01;102672.00;5004157;28;45449;-64
2022/10/06 12:02:44;;;;;;;;;2.40;1.00;;;;;33.78;20.59;102665.59;5009501;28;46471;-63
2022/10/06 12:05:13;;;;;;;;;2.40;1.80;;;;;32.63;21.77;102674.72;5000014;28;46323;-63
2022/10/06 12:07:51;;;;;;;;;1.40;1.40;;;;;32.22;22.23;102670.78;5003941;28;45808;-62
2022/10/06 12:10:26;;;;;;;;;1.00;1.00;;;;;32.39;22.34;102658.97;5000700;28;45561;-63
2022/10/06 12:13:10;;;;;;;;;3.00;1.00;;;;;33.47;21.59;102644.13;5005520;28;45605;-62
2022/10/06 12:15:54;;;;;;;;;3.00;1.60;;;;;33.79;21.06;102656.50;5014204;28;45838;-64
2022/10/06 12:18:33;;;;;;;;;8.20;2.20;;;;;33.96;20.96;102652.63;5007644;28;45569;-63
2022/10/06 12:21:08;;;;;;;;;2.60;1.00;;;;;33.72;20.65;102638.84;5006714;28;45693;-62
2022/10/06 12:23:36;;;;;;;;;5.60;2.00;;;;;33.48;22.11;102646.75;5009457;28;45583;-62
2022/10/06 12:26:29;;;;;;;;;4.60;3.00;;;;;33.43;22.76;102654.28;5010890;28;45551;-62
2022/10/06 12:28:55;;;;;;;;;4.60;4.60;;;;;33.38;22.93;102638.31;5012361;28;45358;-62
2022/10/06 12:31:46;;;;;;;;;4.00;4.00;;;;;33.40;22.38;102634.63;5004066;28;45364;-62
2022/10/06 12:34:40;;;;;;;;;1.80;1.40;;;;;33.24;22.34;102642.88;5002037;28;46606;-63
2022/10/06 12:37:31;;;;;;;;;2.80;2.00;;;;;32.45;22.21;102636.88;5005777;28;45784;-63
2022/10/06 12:40:35;;;;;;;;;1.80;1.00;;;;;32.29;22.94;102644.19;5007660;28;45462;-62
2022/10/06 12:43:21;;;;;;;;;3.80;1.40;;;;;32.30;23.07;102630.53;5003103;28;45746;-62
2022/10/06 12:46:03;;;;;;;;;3.00;1.40;;;;;32.39;22.94;102633.66;5010168;28;45482;-63
2022/10/06 12:48:39;;;;;;;;;1.80;1.60;;;;;32.38;22.83;102634.63;5006849;28;46151;-62
2022/10/06 12:51:43;;;;;;;;;1.80;1.00;;;;;32.25;22.78;102619.13;5007216;28;45486;-64
2022/10/06 12:54:18;;;;;;;;;2.40;1.20;;;;;32.10;22.69;102617.31;5011043;28;45898;-62
2022/10/06 12:57:00;;;;;;;;;2.40;1.00;;;;;31.93;23.56;102603.88;5011205;28;45578;-62
2022/10/06 12:59:32;;;;;;;;;5.00;2.20;;;;;31.67;22.39;102609.84;4997633;28;45505;-63
2022/10/06 13:02:07;;;;;;;;;2.40;2.00;;;;;31.05;22.74;102600.72;5005428;28;45687;-63
2022/10/06 13:04:36;;;;;;;;;3.40;2.60;;;;;30.55;24.05;102612.41;4994041;28;45641;-62
2022/10/06 13:07:28;;;;;;;;;3.80;2.60;;;;;29.89;23.82;102599.56;5004226;28;45604;-63
2022/10/06 13:10:11;;;;;;;;;3.80;2.20;;;;;29.66;25.59;102608.75;4999875;28;45754;-62
2022/10/06 13:12:38;;;;;;;;;4.00;1.80;;;;;29.71;25.11;102598.66;5004015;28;45499;-63
2022/10/06 13:15:23;;;;;;;;;3.80;2.40;;;;;29.48;24.97;102588.97;5008558;28;45617;-63
2022/10/06 13:18:16;;;;;;;;;3.00;1.00;;;;;29.11;25.49;102596.09;5009678;28;45508;-63
2022/10/06 13:20:53;;;;;;;;;1.20;1.20;;;;;28.96;26.35;102578.78;5006225;28;46071;-63
2022/10/06 13:23:24;;;;;;;;;2.20;1.80;;;;;29.15;26.94;102590.50;5021027;28;45724;-63
2022/10/06 13:25:56;;;;;;;;;4.20;1.20;;;;;29.14;26.00;102587.88;4997482;28;45410;-65
2022/10/06 13:28:41;;;;;;;;;1.50;1.00;;;;;29.16;25.72;102581.47;5013291;28;45556;-62
2022/10/06 13:31:17;;;;;;;;;1.00;1.00;;;;;29.12;25.47;102574.47;5002394;28;46194;-63
2022/10/06 13:33:44;;;;;;;;;4.00;1.00;;;;;29.13;25.87;102578.91;5009102;28;45533;-62